sensor_id;sensor_type;location;lat;lon;timestamp;P1;durP1;ratioP1;P2;durP2;ratioP2
80322;SDS011;69636;52.372;13.610;2023-06-22T00:01:00;20.00;;;16.17;;
80322;SDS011;69636;52.372;13.610;2023-06-22T00:03:28;19.02;;;14.43;;
80322;SDS011;69636;52.372;13.610;2023-06-22T00:05:56;17.73;;;14.70;;
80322;SDS011;69636;52.372;13.610;2023-06-22T00:08:24;17.65;;;14.88;;
80322;SDS011;69636;52.372;13.610;2023-06-22T00:10:52;18.45;;;14.95;;
80322;SDS011;69636;52.372;13.610;2023-06-22T00:13:19;20.25;;;16.95;;
80322;SDS011;69636;52.372;13.610;2023-06-22T00:15:47;20.90;;;16.83;;
80322;SDS011;69636;52.372;13.610;2023-06-22T00:18:14;19.35;;;15.98;;
80322;SDS011;69636;52.372;13.610;2023-06-22T00:20:41;19.92;;;16.25;;
80322;SDS011;69636;52.372;13.610;2023-06-22T00:25:37;19.15;;;15.07;;
80322;SDS011;69636;52.372;13.610;2023-06-22T00:28:05;20.17;;;16.88;;
80322;SDS011;69636;52.372;13.610;2023-06-22T00:30:33;19.40;;;16.60;;
80322;SDS011;69636;52.372;13.610;2023-06-22T00:33:01;19.42;;;16.42;;
80322;SDS011;69636;52.372;13.610;2023-06-22T00:37:56;20.83;;;17.80;;
80322;SDS011;69636;52.372;13.610;2023-06-22T00:40:26;19.00;;;16.27;;
80322;SDS011;69636;52.372;13.610;2023-06-22T00:42:55;19.35;;;16.45;;
80322;SDS011;69636;52.372;13.610;2023-06-22T00:45:22;21.42;;;16.25;;
80322;SDS011;69636;52.372;13.610;2023-06-22T00:47:50;19.60;;;15.85;;
80322;SDS011;69636;52.372;13.610;2023-06-22T00:50:20;20.55;;;16.50;;
80322;SDS011;69636;52.372;13.610;2023-06-22T00:52:49;19.35;;;15.32;;
80322;SDS011;69636;52.372;13.610;2023-06-22T00:55:22;20.05;;;15.85;;
80322;SDS011;69636;52.372;13.610;2023-06-22T00:57:50;19.73;;;16.38;;
80322;SDS011;69636;52.372;13.610;2023-06-22T01:00:20;19.90;;;16.92;;
80322;SDS011;69636;52.372;13.610;2023-06-22T01:02:48;19.58;;;16.27;;
80322;SDS011;69636;52.372;13.610;2023-06-22T01:05:18;17.88;;;15.30;;
80322;SDS011;69636;52.372;13.610;2023-06-22T01:07:50;19.45;;;16.17;;
80322;SDS011;69636;52.372;13.610;2023-06-22T01:10:30;16.73;;;14.68;;
80322;SDS011;69636;52.372;13.610;2023-06-22T01:13:01;18.02;;;14.63;;
80322;SDS011;69636;52.372;13.610;2023-06-22T01:15:36;18.88;;;15.65;;
80322;SDS011;69636;52.372;13.610;2023-06-22T01:18:06;16.38;;;14.18;;
80322;SDS011;69636;52.372;13.610;2023-06-22T01:20:36;20.42;;;15.10;;
80322;SDS011;69636;52.372;13.610;2023-06-22T01:23:09;15.65;;;13.93;;
80322;SDS011;69636;52.372;13.610;2023-06-22T01:25:45;16.63;;;13.32;;
80322;SDS011;69636;52.372;13.610;2023-06-22T01:28:19;16.13;;;14.00;;
80322;SDS011;69636;52.372;13.610;2023-06-22T01:30:54;16.45;;;13.45;;
80322;SDS011;69636;52.372;13.610;2023-06-22T01:33:22;17.52;;;14.25;;
80322;SDS011;69636;52.372;13.610;2023-06-22T01:35:49;15.05;;;13.10;;
80322;SDS011;69636;52.372;13.610;2023-06-22T01:38:17;17.73;;;15.68;;
80322;SDS011;69636;52.372;13.610;2023-06-22T01:40:44;15.18;;;13.35;;
80322;SDS011;69636;52.372;13.610;2023-06-22T01:43:12;17.52;;;14.27;;
80322;SDS011;69636;52.372;13.610;2023-06-22T01:45:40;15.38;;;13.70;;
80322;SDS011;69636;52.372;13.610;2023-06-22T01:48:09;15.10;;;13.02;;
80322;SDS011;69636;52.372;13.610;2023-06-22T01:50:37;16.08;;;13.48;;
80322;SDS011;69636;52.372;13.610;2023-06-22T01:53:05;15.98;;;13.63;;
80322;SDS011;69636;52.372;13.610;2023-06-22T01:55:32;16.70;;;14.57;;
80322;SDS011;69636;52.372;13.610;2023-06-22T01:58:00;17.13;;;14.50;;
80322;SDS011;69636;52.372;13.610;2023-06-22T02:00:28;15.48;;;13.60;;
80322;SDS011;69636;52.372;13.610;2023-06-22T02:03:01;15.95;;;14.30;;
80322;SDS011;69636;52.372;13.610;2023-06-22T02:05:36;16.70;;;14.00;;
80322;SDS011;69636;52.372;13.610;2023-06-22T02:08:10;17.35;;;15.25;;
80322;SDS011;69636;52.372;13.610;2023-06-22T02:10:43;15.85;;;13.70;;
80322;SDS011;69636;52.372;13.610;2023-06-22T02:13:12;16.40;;;13.60;;
80322;SDS011;69636;52.372;13.610;2023-06-22T02:15:41;16.88;;;15.10;;
80322;SDS011;69636;52.372;13.610;2023-06-22T02:18:09;15.80;;;13.73;;
80322;SDS011;69636;52.372;13.610;2023-06-22T02:20:40;18.70;;;15.93;;
80322;SDS011;69636;52.372;13.610;2023-06-22T02:23:08;16.75;;;14.95;;
80322;SDS011;69636;52.372;13.610;2023-06-22T02:25:35;18.33;;;16.52;;
80322;SDS011;69636;52.372;13.610;2023-06-22T02:28:03;16.60;;;14.70;;
80322;SDS011;69636;52.372;13.610;2023-06-22T02:30:31;17.27;;;15.13;;
80322;SDS011;69636;52.372;13.610;2023-06-22T02:33:00;16.55;;;14.55;;
80322;SDS011;69636;52.372;13.610;2023-06-22T02:35:28;19.50;;;16.25;;
80322;SDS011;69636;52.372;13.610;2023-06-22T02:37:58;20.13;;;18.10;;
80322;SDS011;69636;52.372;13.610;2023-06-22T02:40:25;18.88;;;15.95;;
80322;SDS011;69636;52.372;13.610;2023-06-22T02:42:53;17.10;;;15.30;;
80322;SDS011;69636;52.372;13.610;2023-06-22T02:45:21;18.10;;;14.85;;
80322;SDS011;69636;52.372;13.610;2023-06-22T02:47:48;18.05;;;15.88;;
80322;SDS011;69636;52.372;13.610;2023-06-22T02:50:15;18.42;;;16.42;;
80322;SDS011;69636;52.372;13.610;2023-06-22T02:52:43;17.75;;;15.23;;
80322;SDS011;69636;52.372;13.610;2023-06-22T02:55:13;19.45;;;15.68;;
80322;SDS011;69636;52.372;13.610;2023-06-22T02:57:40;19.92;;;16.65;;
80322;SDS011;69636;52.372;13.610;2023-06-22T03:00:08;17.13;;;15.32;;
80322;SDS011;69636;52.372;13.610;2023-06-22T03:02:37;18.05;;;16.20;;
80322;SDS011;69636;52.372;13.610;2023-06-22T03:05:04;28.15;;;25.48;;
80322;SDS011;69636;52.372;13.610;2023-06-22T03:07:32;19.63;;;17.52;;
80322;SDS011;69636;52.372;13.610;2023-06-22T03:09:59;19.85;;;16.63;;
80322;SDS011;69636;52.372;13.610;2023-06-22T03:12:29;18.88;;;16.70;;
80322;SDS011;69636;52.372;13.610;2023-06-22T03:14:57;18.75;;;16.75;;
80322;SDS011;69636;52.372;13.610;2023-06-22T03:17:24;22.27;;;19.88;;
80322;SDS011;69636;52.372;13.610;2023-06-22T03:19:52;20.92;;;18.50;;
80322;SDS011;69636;52.372;13.610;2023-06-22T03:22:19;19.92;;;17.83;;
80322;SDS011;69636;52.372;13.610;2023-06-22T03:24:46;19.65;;;17.55;;
80322;SDS011;69636;52.372;13.610;2023-06-22T03:27:14;18.70;;;16.38;;
80322;SDS011;69636;52.372;13.610;2023-06-22T03:29:42;18.52;;;16.20;;
80322;SDS011;69636;52.372;13.610;2023-06-22T03:32:10;20.30;;;16.85;;
80322;SDS011;69636;52.372;13.610;2023-06-22T03:34:37;16.80;;;15.00;;
80322;SDS011;69636;52.372;13.610;2023-06-22T03:37:04;18.00;;;14.15;;
80322;SDS011;69636;52.372;13.610;2023-06-22T03:39:32;20.20;;;17.33;;
80322;SDS011;69636;52.372;13.610;2023-06-22T03:41:59;19.02;;;15.95;;
80322;SDS011;69636;52.372;13.610;2023-06-22T03:44:27;18.80;;;16.90;;
80322;SDS011;69636;52.372;13.610;2023-06-22T03:46:56;16.35;;;14.25;;
80322;SDS011;69636;52.372;13.610;2023-06-22T03:49:23;17.05;;;15.25;;
80322;SDS011;69636;52.372;13.610;2023-06-22T03:51:51;17.52;;;14.80;;
80322;SDS011;69636;52.372;13.610;2023-06-22T03:54:18;18.80;;;14.80;;
80322;SDS011;69636;52.372;13.610;2023-06-22T03:56:45;16.45;;;14.68;;
80322;SDS011;69636;52.372;13.610;2023-06-22T03:59:13;15.55;;;13.52;;
80322;SDS011;69636;52.372;13.610;2023-06-22T04:01:40;17.95;;;13.85;;
80322;SDS011;69636;52.372;13.610;2023-06-22T04:04:09;17.25;;;13.77;;
80322;SDS011;69636;52.372;13.610;2023-06-22T04:06:36;17.08;;;13.70;;
80322;SDS011;69636;52.372;13.610;2023-06-22T04:09:03;17.98;;;15.82;;
80322;SDS011;69636;52.372;13.610;2023-06-22T04:11:32;15.52;;;13.88;;
80322;SDS011;69636;52.372;13.610;2023-06-22T04:13:59;17.48;;;13.85;;
80322;SDS011;69636;52.372;13.610;2023-06-22T04:16:27;15.38;;;13.75;;
80322;SDS011;69636;52.372;13.610;2023-06-22T04:18:54;15.32;;;12.45;;
80322;SDS011;69636;52.372;13.610;2023-06-22T04:21:23;15.18;;;13.52;;
80322;SDS011;69636;52.372;13.610;2023-06-22T04:23:50;14.65;;;13.07;;
80322;SDS011;69636;52.372;13.610;2023-06-22T04:26:18;14.93;;;13.45;;
80322;SDS011;69636;52.372;13.610;2023-06-22T04:28:45;14.85;;;13.23;;
80322;SDS011;69636;52.372;13.610;2023-06-22T04:31:12;14.98;;;12.77;;
80322;SDS011;69636;52.372;13.610;2023-06-22T04:33:39;15.98;;;12.77;;
80322;SDS011;69636;52.372;13.610;2023-06-22T04:36:08;14.35;;;12.40;;
80322;SDS011;69636;52.372;13.610;2023-06-22T04:38:37;15.52;;;12.55;;
80322;SDS011;69636;52.372;13.610;2023-06-22T04:41:04;15.25;;;12.98;;
80322;SDS011;69636;52.372;13.610;2023-06-22T04:43:33;14.65;;;12.57;;
80322;SDS011;69636;52.372;13.610;2023-06-22T04:46:00;13.57;;;12.15;;
80322;SDS011;69636;52.372;13.610;2023-06-22T04:48:28;16.52;;;13.00;;
80322;SDS011;69636;52.372;13.610;2023-06-22T04:50:55;15.57;;;13.73;;
80322;SDS011;69636;52.372;13.610;2023-06-22T04:53:22;16.15;;;13.27;;
80322;SDS011;69636;52.372;13.610;2023-06-22T04:55:51;13.88;;;12.38;;
80322;SDS011;69636;52.372;13.610;2023-06-22T04:58:18;15.85;;;13.27;;
80322;SDS011;69636;52.372;13.610;2023-06-22T05:00:46;14.00;;;11.73;;
80322;SDS011;69636;52.372;13.610;2023-06-22T05:03:16;13.63;;;11.50;;
80322;SDS011;69636;52.372;13.610;2023-06-22T05:05:46;12.63;;;11.32;;
80322;SDS011;69636;52.372;13.610;2023-06-22T05:08:14;15.25;;;11.98;;
80322;SDS011;69636;52.372;13.610;2023-06-22T05:10:41;14.63;;;11.35;;
80322;SDS011;69636;52.372;13.610;2023-06-22T05:13:29;13.27;;;11.10;;
80322;SDS011;69636;52.372;13.610;2023-06-22T05:15:58;13.73;;;11.00;;
80322;SDS011;69636;52.372;13.610;2023-06-22T05:20:53;14.25;;;11.48;;
80322;SDS011;69636;52.372;13.610;2023-06-22T05:23:20;15.23;;;10.38;;
80322;SDS011;69636;52.372;13.610;2023-06-22T05:25:47;12.00;;;10.13;;
80322;SDS011;69636;52.372;13.610;2023-06-22T05:28:15;12.65;;;11.30;;
80322;SDS011;69636;52.372;13.610;2023-06-22T05:30:43;13.15;;;9.75;;
80322;SDS011;69636;52.372;13.610;2023-06-22T05:33:11;11.07;;;8.70;;
80322;SDS011;69636;52.372;13.610;2023-06-22T05:35:38;10.68;;;9.55;;
80322;SDS011;69636;52.372;13.610;2023-06-22T05:38:05;9.95;;;8.43;;
80322;SDS011;69636;52.372;13.610;2023-06-22T05:40:33;9.98;;;8.23;;
80322;SDS011;69636;52.372;13.610;2023-06-22T05:43:00;9.63;;;8.45;;
80322;SDS011;69636;52.372;13.610;2023-06-22T05:45:27;11.90;;;8.70;;
80322;SDS011;69636;52.372;13.610;2023-06-22T05:47:56;11.65;;;8.70;;
80322;SDS011;69636;52.372;13.610;2023-06-22T05:50:24;10.90;;;8.65;;
80322;SDS011;69636;52.372;13.610;2023-06-22T05:52:53;11.63;;;9.55;;
80322;SDS011;69636;52.372;13.610;2023-06-22T05:55:20;11.43;;;9.35;;
80322;SDS011;69636;52.372;13.610;2023-06-22T06:00:15;9.25;;;7.45;;
80322;SDS011;69636;52.372;13.610;2023-06-22T06:02:43;12.15;;;8.07;;
80322;SDS011;69636;52.372;13.610;2023-06-22T06:05:12;9.82;;;8.23;;
80322;SDS011;69636;52.372;13.610;2023-06-22T06:07:40;9.45;;;7.70;;
80322;SDS011;69636;52.372;13.610;2023-06-22T06:12:35;10.27;;;7.05;;
80322;SDS011;69636;52.372;13.610;2023-06-22T06:17:30;8.55;;;7.15;;
80322;SDS011;69636;52.372;13.610;2023-06-22T06:19:58;10.00;;;7.75;;
80322;SDS011;69636;52.372;13.610;2023-06-22T06:22:27;8.88;;;7.03;;
80322;SDS011;69636;52.372;13.610;2023-06-22T06:24:55;8.48;;;6.78;;
80322;SDS011;69636;52.372;13.610;2023-06-22T06:27:22;9.02;;;7.07;;
80322;SDS011;69636;52.372;13.610;2023-06-22T06:29:49;7.60;;;6.45;;
80322;SDS011;69636;52.372;13.610;2023-06-22T06:32:17;8.80;;;6.50;;
80322;SDS011;69636;52.372;13.610;2023-06-22T06:34:47;7.57;;;6.05;;
80322;SDS011;69636;52.372;13.610;2023-06-22T06:37:14;7.03;;;5.88;;
80322;SDS011;69636;52.372;13.610;2023-06-22T06:39:43;7.65;;;5.70;;
80322;SDS011;69636;52.372;13.610;2023-06-22T06:42:11;7.75;;;6.30;;
80322;SDS011;69636;52.372;13.610;2023-06-22T06:47:05;6.18;;;4.95;;
80322;SDS011;69636;52.372;13.610;2023-06-22T06:49:33;5.97;;;5.20;;
80322;SDS011;69636;52.372;13.610;2023-06-22T06:54:27;5.43;;;4.40;;
80322;SDS011;69636;52.372;13.610;2023-06-22T06:56:56;6.00;;;4.53;;
80322;SDS011;69636;52.372;13.610;2023-06-22T06:59:24;5.95;;;4.78;;
80322;SDS011;69636;52.372;13.610;2023-06-22T07:01:51;5.70;;;4.43;;
80322;SDS011;69636;52.372;13.610;2023-06-22T07:04:18;6.18;;;4.13;;
80322;SDS011;69636;52.372;13.610;2023-06-22T07:06:46;5.10;;;4.28;;
80322;SDS011;69636;52.372;13.610;2023-06-22T07:09:13;5.18;;;3.78;;
80322;SDS011;69636;52.372;13.610;2023-06-22T07:11:42;7.60;;;4.30;;
80322;SDS011;69636;52.372;13.610;2023-06-22T07:14:11;4.90;;;3.90;;
80322;SDS011;69636;52.372;13.610;2023-06-22T07:16:38;6.28;;;4.18;;
80322;SDS011;69636;52.372;13.610;2023-06-22T07:19:07;6.30;;;4.60;;
80322;SDS011;69636;52.372;13.610;2023-06-22T07:21:36;5.70;;;4.38;;
80322;SDS011;69636;52.372;13.610;2023-06-22T07:26:31;7.70;;;5.20;;
80322;SDS011;69636;52.372;13.610;2023-06-22T07:28:59;6.30;;;3.85;;
80322;SDS011;69636;52.372;13.610;2023-06-22T07:31:28;6.25;;;4.22;;
80322;SDS011;69636;52.372;13.610;2023-06-22T07:33:55;5.72;;;4.75;;
80322;SDS011;69636;52.372;13.610;2023-06-22T07:36:22;6.15;;;4.57;;
80322;SDS011;69636;52.372;13.610;2023-06-22T07:41:17;5.97;;;4.47;;
80322;SDS011;69636;52.372;13.610;2023-06-22T07:43:44;7.65;;;4.25;;
80322;SDS011;69636;52.372;13.610;2023-06-22T07:46:11;6.55;;;3.80;;
80322;SDS011;69636;52.372;13.610;2023-06-22T07:48:40;5.65;;;3.80;;
80322;SDS011;69636;52.372;13.610;2023-06-22T07:51:08;6.50;;;3.80;;
80322;SDS011;69636;52.372;13.610;2023-06-22T07:53:35;4.55;;;3.20;;
80322;SDS011;69636;52.372;13.610;2023-06-22T07:56:02;5.72;;;3.55;;
80322;SDS011;69636;52.372;13.610;2023-06-22T07:58:30;5.00;;;3.97;;
80322;SDS011;69636;52.372;13.610;2023-06-22T08:00:58;7.28;;;3.60;;
80322;SDS011;69636;52.372;13.610;2023-06-22T08:03:26;6.43;;;3.42;;
80322;SDS011;69636;52.372;13.610;2023-06-22T08:08:22;6.30;;;3.85;;
80322;SDS011;69636;52.372;13.610;2023-06-22T08:10:49;4.55;;;3.30;;
80322;SDS011;69636;52.372;13.610;2023-06-22T08:13:16;4.82;;;2.85;;
80322;SDS011;69636;52.372;13.610;2023-06-22T08:15:45;5.20;;;3.25;;
80322;SDS011;69636;52.372;13.610;2023-06-22T08:18:16;6.03;;;3.08;;
80322;SDS011;69636;52.372;13.610;2023-06-22T08:20:44;5.63;;;3.20;;
80322;SDS011;69636;52.372;13.610;2023-06-22T08:23:13;5.15;;;3.30;;
80322;SDS011;69636;52.372;13.610;2023-06-22T08:25:40;4.68;;;3.15;;
80322;SDS011;69636;52.372;13.610;2023-06-22T08:28:08;5.07;;;3.40;;
80322;SDS011;69636;52.372;13.610;2023-06-22T08:33:02;4.72;;;3.22;;
80322;SDS011;69636;52.372;13.610;2023-06-22T08:35:30;4.60;;;3.20;;
80322;SDS011;69636;52.372;13.610;2023-06-22T08:37:58;4.68;;;3.38;;
80322;SDS011;69636;52.372;13.610;2023-06-22T08:42:54;5.18;;;3.00;;
80322;SDS011;69636;52.372;13.610;2023-06-22T08:47:49;4.65;;;2.97;;
80322;SDS011;69636;52.372;13.610;2023-06-22T08:52:44;4.60;;;2.95;;
80322;SDS011;69636;52.372;13.610;2023-06-22T08:55:12;5.40;;;3.30;;
80322;SDS011;69636;52.372;13.610;2023-06-22T08:57:42;6.22;;;3.38;;
80322;SDS011;69636;52.372;13.610;2023-06-22T09:00:10;5.28;;;3.20;;
80322;SDS011;69636;52.372;13.610;2023-06-22T09:02:38;5.32;;;3.00;;
80322;SDS011;69636;52.372;13.610;2023-06-22T09:07:35;4.60;;;2.88;;
80322;SDS011;69636;52.372;13.610;2023-06-22T09:12:30;5.70;;;2.88;;
80322;SDS011;69636;52.372;13.610;2023-06-22T09:14:59;5.45;;;2.90;;
80322;SDS011;69636;52.372;13.610;2023-06-22T09:17:27;15.18;;;10.57;;
80322;SDS011;69636;52.372;13.610;2023-06-22T09:19:55;5.38;;;3.00;;
80322;SDS011;69636;52.372;13.610;2023-06-22T09:22:23;4.95;;;2.72;;
80322;SDS011;69636;52.372;13.610;2023-06-22T09:27:17;6.90;;;3.25;;
80322;SDS011;69636;52.372;13.610;2023-06-22T09:29:45;4.20;;;2.92;;
80322;SDS011;69636;52.372;13.610;2023-06-22T09:34:41;4.50;;;2.90;;
80322;SDS011;69636;52.372;13.610;2023-06-22T09:39:36;4.13;;;2.88;;
80322;SDS011;69636;52.372;13.610;2023-06-22T09:44:30;4.60;;;2.95;;
80322;SDS011;69636;52.372;13.610;2023-06-22T09:46:58;7.22;;;5.28;;
80322;SDS011;69636;52.372;13.610;2023-06-22T09:52:13;4.57;;;2.72;;
80322;SDS011;69636;52.372;13.610;2023-06-22T09:57:07;4.93;;;3.08;;
80322;SDS011;69636;52.372;13.610;2023-06-22T10:02:02;5.40;;;2.72;;
80322;SDS011;69636;52.372;13.610;2023-06-22T10:04:31;3.95;;;2.88;;
80322;SDS011;69636;52.372;13.610;2023-06-22T10:06:59;4.85;;;2.88;;
80322;SDS011;69636;52.372;13.610;2023-06-22T10:11:53;5.28;;;3.63;;
80322;SDS011;69636;52.372;13.610;2023-06-22T10:16:49;4.47;;;3.20;;
80322;SDS011;69636;52.372;13.610;2023-06-22T10:19:18;5.03;;;3.03;;
80322;SDS011;69636;52.372;13.610;2023-06-22T10:24:14;5.10;;;3.75;;
80322;SDS011;69636;52.372;13.610;2023-06-22T10:26:41;6.10;;;4.88;;
80322;SDS011;69636;52.372;13.610;2023-06-22T10:31:43;6.30;;;3.50;;
80322;SDS011;69636;52.372;13.610;2023-06-22T10:36:38;5.35;;;3.70;;
80322;SDS011;69636;52.372;13.610;2023-06-22T10:39:07;4.38;;;3.10;;
80322;SDS011;69636;52.372;13.610;2023-06-22T10:41:34;4.57;;;3.10;;
80322;SDS011;69636;52.372;13.610;2023-06-22T10:44:02;5.38;;;3.53;;
80322;SDS011;69636;52.372;13.610;2023-06-22T10:46:29;6.57;;;3.38;;
80322;SDS011;69636;52.372;13.610;2023-06-22T10:48:57;6.00;;;3.63;;
80322;SDS011;69636;52.372;13.610;2023-06-22T10:51:26;6.38;;;3.40;;
80322;SDS011;69636;52.372;13.610;2023-06-22T10:56:21;5.10;;;3.00;;
80322;SDS011;69636;52.372;13.610;2023-06-22T10:58:49;5.35;;;3.60;;
80322;SDS011;69636;52.372;13.610;2023-06-22T11:04:01;4.60;;;3.60;;
80322;SDS011;69636;52.372;13.610;2023-06-22T11:06:28;5.47;;;3.63;;
80322;SDS011;69636;52.372;13.610;2023-06-22T11:08:56;6.03;;;3.45;;
80322;SDS011;69636;52.372;13.610;2023-06-22T11:11:39;7.25;;;2.97;;
80322;SDS011;69636;52.372;13.610;2023-06-22T11:14:07;4.30;;;3.00;;
80322;SDS011;69636;52.372;13.610;2023-06-22T11:19:01;4.90;;;2.70;;
80322;SDS011;69636;52.372;13.610;2023-06-22T11:21:29;4.95;;;3.13;;
80322;SDS011;69636;52.372;13.610;2023-06-22T11:23:56;4.78;;;2.80;;
80322;SDS011;69636;52.372;13.610;2023-06-22T11:26:24;6.13;;;3.40;;
80322;SDS011;69636;52.372;13.610;2023-06-22T11:28:53;5.05;;;3.22;;
80322;SDS011;69636;52.372;13.610;2023-06-22T11:31:21;4.20;;;2.83;;
80322;SDS011;69636;52.372;13.610;2023-06-22T11:33:54;4.43;;;3.00;;
80322;SDS011;69636;52.372;13.610;2023-06-22T11:36:21;3.88;;;3.05;;
80322;SDS011;69636;52.372;13.610;2023-06-22T11:38:49;6.30;;;3.13;;
80322;SDS011;69636;52.372;13.610;2023-06-22T11:41:16;4.65;;;3.20;;
80322;SDS011;69636;52.372;13.610;2023-06-22T11:43:44;4.68;;;3.08;;
80322;SDS011;69636;52.372;13.610;2023-06-22T11:46:12;6.35;;;3.38;;
80322;SDS011;69636;52.372;13.610;2023-06-22T11:48:40;4.72;;;3.03;;
80322;SDS011;69636;52.372;13.610;2023-06-22T11:51:07;4.43;;;2.97;;
80322;SDS011;69636;52.372;13.610;2023-06-22T11:53:35;6.15;;;3.53;;
80322;SDS011;69636;52.372;13.610;2023-06-22T11:56:02;5.15;;;3.33;;
80322;SDS011;69636;52.372;13.610;2023-06-22T11:58:30;5.43;;;3.42;;
80322;SDS011;69636;52.372;13.610;2023-06-22T12:00:57;4.45;;;3.15;;
80322;SDS011;69636;52.372;13.610;2023-06-22T12:03:26;5.18;;;3.47;;
80322;SDS011;69636;52.372;13.610;2023-06-22T12:05:53;5.38;;;3.13;;
80322;SDS011;69636;52.372;13.610;2023-06-22T12:08:22;4.80;;;3.20;;
80322;SDS011;69636;52.372;13.610;2023-06-22T12:10:49;4.13;;;3.22;;
80322;SDS011;69636;52.372;13.610;2023-06-22T12:13:17;5.03;;;3.42;;
80322;SDS011;69636;52.372;13.610;2023-06-22T12:15:45;4.50;;;2.92;;
80322;SDS011;69636;52.372;13.610;2023-06-22T12:18:12;5.00;;;3.10;;
80322;SDS011;69636;52.372;13.610;2023-06-22T12:20:42;4.15;;;3.10;;
80322;SDS011;69636;52.372;13.610;2023-06-22T12:23:09;5.80;;;3.35;;
80322;SDS011;69636;52.372;13.610;2023-06-22T12:25:37;5.32;;;3.40;;
80322;SDS011;69636;52.372;13.610;2023-06-22T12:28:04;4.93;;;3.08;;
80322;SDS011;69636;52.372;13.610;2023-06-22T12:30:32;4.88;;;3.50;;
80322;SDS011;69636;52.372;13.610;2023-06-22T12:32:59;4.57;;;3.47;;
80322;SDS011;69636;52.372;13.610;2023-06-22T12:35:27;4.88;;;3.45;;
80322;SDS011;69636;52.372;13.610;2023-06-22T12:37:56;5.40;;;3.85;;
80322;SDS011;69636;52.372;13.610;2023-06-22T12:40:23;5.65;;;3.95;;
80322;SDS011;69636;52.372;13.610;2023-06-22T12:42:51;4.75;;;3.35;;
80322;SDS011;69636;52.372;13.610;2023-06-22T12:45:18;5.20;;;3.85;;
80322;SDS011;69636;52.372;13.610;2023-06-22T12:47:46;6.40;;;4.38;;
80322;SDS011;69636;52.372;13.610;2023-06-22T12:50:13;5.18;;;3.55;;
80322;SDS011;69636;52.372;13.610;2023-06-22T12:52:41;5.35;;;3.50;;
80322;SDS011;69636;52.372;13.610;2023-06-22T12:55:09;5.28;;;3.97;;
80322;SDS011;69636;52.372;13.610;2023-06-22T12:57:37;5.53;;;3.83;;
80322;SDS011;69636;52.372;13.610;2023-06-22T13:00:05;5.38;;;3.97;;
80322;SDS011;69636;52.372;13.610;2023-06-22T13:02:33;6.65;;;3.92;;
80322;SDS011;69636;52.372;13.610;2023-06-22T13:05:01;4.88;;;3.70;;
80322;SDS011;69636;52.372;13.610;2023-06-22T13:07:28;5.78;;;4.43;;
80322;SDS011;69636;52.372;13.610;2023-06-22T13:09:56;6.30;;;3.80;;
80322;SDS011;69636;52.372;13.610;2023-06-22T13:12:25;5.95;;;4.03;;
80322;SDS011;69636;52.372;13.610;2023-06-22T13:14:52;5.28;;;4.00;;
80322;SDS011;69636;52.372;13.610;2023-06-22T13:17:20;5.47;;;4.05;;
80322;SDS011;69636;52.372;13.610;2023-06-22T13:19:47;5.82;;;4.70;;
80322;SDS011;69636;52.372;13.610;2023-06-22T13:22:28;5.45;;;3.92;;
80322;SDS011;69636;52.372;13.610;2023-06-22T13:24:57;5.90;;;3.90;;
80322;SDS011;69636;52.372;13.610;2023-06-22T13:27:27;5.55;;;4.30;;
80322;SDS011;69636;52.372;13.610;2023-06-22T13:29:54;5.85;;;4.60;;
80322;SDS011;69636;52.372;13.610;2023-06-22T13:32:22;5.85;;;4.35;;
80322;SDS011;69636;52.372;13.610;2023-06-22T13:34:52;5.55;;;4.40;;
80322;SDS011;69636;52.372;13.610;2023-06-22T13:37:20;5.53;;;4.13;;
80322;SDS011;69636;52.372;13.610;2023-06-22T13:39:48;5.85;;;4.60;;
80322;SDS011;69636;52.372;13.610;2023-06-22T13:42:16;5.55;;;4.53;;
80322;SDS011;69636;52.372;13.610;2023-06-22T13:44:45;6.40;;;4.22;;
80322;SDS011;69636;52.372;13.610;2023-06-22T13:47:13;5.68;;;4.43;;
80322;SDS011;69636;52.372;13.610;2023-06-22T13:49:40;6.07;;;4.40;;
80322;SDS011;69636;52.372;13.610;2023-06-22T13:52:09;5.97;;;4.53;;
80322;SDS011;69636;52.372;13.610;2023-06-22T13:54:37;5.47;;;4.25;;
80322;SDS011;69636;52.372;13.610;2023-06-22T13:57:06;6.45;;;4.53;;
80322;SDS011;69636;52.372;13.610;2023-06-22T13:59:34;6.80;;;4.55;;
80322;SDS011;69636;52.372;13.610;2023-06-22T14:02:03;8.68;;;4.57;;
80322;SDS011;69636;52.372;13.610;2023-06-22T14:04:31;6.10;;;4.60;;
80322;SDS011;69636;52.372;13.610;2023-06-22T14:06:58;7.45;;;4.95;;
80322;SDS011;69636;52.372;13.610;2023-06-22T14:09:26;5.82;;;4.55;;
80322;SDS011;69636;52.372;13.610;2023-06-22T14:11:53;6.45;;;4.65;;
80322;SDS011;69636;52.372;13.610;2023-06-22T14:14:21;5.80;;;4.70;;
80322;SDS011;69636;52.372;13.610;2023-06-22T14:16:48;5.55;;;4.30;;
80322;SDS011;69636;52.372;13.610;2023-06-22T14:19:18;6.13;;;4.78;;
80322;SDS011;69636;52.372;13.610;2023-06-22T14:21:45;7.60;;;4.82;;
80322;SDS011;69636;52.372;13.610;2023-06-22T14:24:12;6.30;;;5.30;;
80322;SDS011;69636;52.372;13.610;2023-06-22T14:26:40;7.45;;;5.25;;
80322;SDS011;69636;52.372;13.610;2023-06-22T14:29:07;6.25;;;4.70;;
80322;SDS011;69636;52.372;13.610;2023-06-22T14:31:36;5.35;;;4.45;;
80322;SDS011;69636;52.372;13.610;2023-06-22T14:34:03;5.55;;;4.57;;
80322;SDS011;69636;52.372;13.610;2023-06-22T14:36:32;6.70;;;5.07;;
80322;SDS011;69636;52.372;13.610;2023-06-22T14:38:59;7.60;;;4.68;;
80322;SDS011;69636;52.372;13.610;2023-06-22T14:41:27;5.68;;;4.60;;
80322;SDS011;69636;52.372;13.610;2023-06-22T14:43:54;8.25;;;6.82;;
80322;SDS011;69636;52.372;13.610;2023-06-22T14:46:21;8.15;;;6.78;;
80322;SDS011;69636;52.372;13.610;2023-06-22T14:48:51;6.82;;;5.50;;
80322;SDS011;69636;52.372;13.610;2023-06-22T14:51:20;6.22;;;4.90;;
80322;SDS011;69636;52.372;13.610;2023-06-22T14:53:49;6.53;;;5.45;;
80322;SDS011;69636;52.372;13.610;2023-06-22T14:56:16;7.53;;;4.80;;
80322;SDS011;69636;52.372;13.610;2023-06-22T14:58:43;6.55;;;5.30;;
80322;SDS011;69636;52.372;13.610;2023-06-22T15:01:11;7.53;;;4.80;;
80322;SDS011;69636;52.372;13.610;2023-06-22T15:03:39;6.00;;;4.90;;
80322;SDS011;69636;52.372;13.610;2023-06-22T15:06:07;6.15;;;4.70;;
80322;SDS011;69636;52.372;13.610;2023-06-22T15:08:36;6.10;;;5.43;;
80322;SDS011;69636;52.372;13.610;2023-06-22T15:11:05;6.53;;;5.75;;
80322;SDS011;69636;52.372;13.610;2023-06-22T15:13:33;6.82;;;5.93;;
80322;SDS011;69636;52.372;13.610;2023-06-22T15:16:01;5.93;;;4.78;;
80322;SDS011;69636;52.372;13.610;2023-06-22T15:18:29;6.30;;;5.18;;
80322;SDS011;69636;52.372;13.610;2023-06-22T15:20:57;6.28;;;5.10;;
80322;SDS011;69636;52.372;13.610;2023-06-22T15:23:24;6.60;;;5.15;;
80322;SDS011;69636;52.372;13.610;2023-06-22T15:25:51;6.18;;;5.20;;
80322;SDS011;69636;52.372;13.610;2023-06-22T15:28:20;6.40;;;5.25;;
80322;SDS011;69636;52.372;13.610;2023-06-22T15:30:47;6.07;;;4.93;;
80322;SDS011;69636;52.372;13.610;2023-06-22T15:33:15;7.30;;;5.07;;
80322;SDS011;69636;52.372;13.610;2023-06-22T15:35:43;6.03;;;4.90;;
80322;SDS011;69636;52.372;13.610;2023-06-22T15:38:11;6.05;;;5.00;;
80322;SDS011;69636;52.372;13.610;2023-06-22T15:40:38;6.53;;;5.38;;
80322;SDS011;69636;52.372;13.610;2023-06-22T15:43:06;6.00;;;4.70;;
80322;SDS011;69636;52.372;13.610;2023-06-22T15:45:38;5.88;;;4.78;;
80322;SDS011;69636;52.372;13.610;2023-06-22T15:48:05;6.43;;;5.10;;